Time;durP1;ratioP1;P1;durP2;ratioP2;P2;SDS_P1;SDS_P2;PMS_P1;PMS_P2;Temp;Humidity;BMP_temperature;BMP_pressure;BME280_temperature;BME280_humidity;BME280_pressure;Samples;Min_cycle;Max_cycle;Signal;HPM_P1;HPM_P2
2022/08/13 00:01:46;;;;;;;2.72;1.63;;;;;;;19.36;55.64;101190.03;6021811;28;20417;-65
2022/08/13 00:05:01;;;;;;;5.33;1.60;;;;;;;19.60;56.17;101187.81;6021917;28;20074;-65
2022/08/13 00:07:56;;;;;;;3.92;1.77;;;;;;;19.54;56.06;101188.59;6022322;28;20277;-66
2022/08/13 00:10:51;;;;;;;3.77;1.80;;;;;;;19.60;56.12;101187.00;6021248;28;20052;-65
2022/08/13 00:13:47;;;;;;;7.80;1.80;;;;;;;19.32;55.54;101178.00;6022069;28;20069;-64
2022/08/13 00:16:42;;;;;;;5.33;1.63;;;;;;;18.95;56.05;101187.94;6021993;28;20033;-66
2022/08/13 00:19:39;;;;;;;3.65;1.85;;;;;;;18.58;57.53;101200.69;6021851;28;20035;-67
2022/08/13 00:22:35;;;;;;;3.40;2.08;;;;;;;18.27;60.07;101193.59;6021364;28;20037;-66
2022/08/13 00:25:30;;;;;;;5.45;1.63;;;;;;;18.51;58.09;101200.56;6021717;28;20038;-64
2022/08/13 00:28:32;;;;;;;2.57;1.80;;;;;;;18.08;59.80;101195.97;6022029;28;20039;-65
2022/08/13 00:31:31;;;;;;;5.00;1.80;;;;;;;18.04;59.82;101197.38;6021449;28;20349;-67
2022/08/13 00:34:27;;;;;;;3.13;1.40;;;;;;;18.10;60.16;101199.34;6025721;28;20049;-66
2022/08/13 00:37:25;;;;;;;3.17;1.70;;;;;;;18.02;60.01;101189.50;6026389;28;20030;-66
2022/08/13 00:40:20;;;;;;;3.30;1.52;;;;;;;18.27;59.89;101198.13;6025260;28;20026;-67
2022/08/13 00:43:16;;;;;;;2.73;1.73;;;;;;;18.11;59.67;101187.56;6026069;28;20363;-66
2022/08/13 00:46:13;;;;;;;3.60;1.67;;;;;;;17.48;61.77;101194.13;6026000;28;20290;-67
2022/08/13 00:49:10;;;;;;;2.85;1.45;;;;;;;17.80;62.69;101199.25;6025987;28;20172;-67
2022/08/13 00:52:07;;;;;;;4.45;2.05;;;;;;;17.37;61.82;101183.81;6025648;28;20061;-65
2022/08/13 00:55:05;;;;;;;2.88;1.75;;;;;;;16.96;64.01;101206.53;6025747;28;20089;-66
2022/08/13 00:58:01;;;;;;;3.72;1.65;;;;;;;16.75;65.13;101192.88;6026386;28;20160;-65
2022/08/13 01:00:59;;;;;;;3.57;1.83;;;;;;;16.43;66.31;101183.94;6025086;28;20038;-65
2022/08/13 01:03:54;;;;;;;4.15;2.13;;;;;;;16.31;67.66;101193.34;6025595;28;20081;-66
2022/08/13 01:06:50;;;;;;;4.82;2.00;;;;;;;16.12;69.88;101185.69;6025669;28;20105;-65
2022/08/13 01:09:45;;;;;;;4.93;2.83;;;;;;;16.01;70.73;101192.22;6016752;28;20031;-65
2022/08/13 01:12:41;;;;;;;6.07;2.05;;;;;;;16.06;70.71;101199.75;6020821;28;20022;-64
2022/08/13 01:15:41;;;;;;;3.08;1.90;;;;;;;15.79;71.46;101178.72;6025246;28;20390;-65
2022/08/13 01:18:39;;;;;;;3.45;2.08;;;;;;;15.84;71.84;101184.41;6025576;28;20046;-67
2022/08/13 01:21:39;;;;;;;3.13;1.83;;;;;;;15.90;72.25;101191.72;6016679;28;20034;-64
2022/08/13 01:24:34;;;;;;;5.80;1.83;;;;;;;16.41;70.75;101188.66;6025324;28;20092;-67
2022/08/13 01:27:29;;;;;;;4.73;2.27;;;;;;;16.69;69.08;101188.25;6025170;28;20026;-66
2022/08/13 01:30:25;;;;;;;5.40;2.00;;;;;;;16.45;69.62;101184.59;6024201;28;20093;-65
2022/08/13 01:33:22;;;;;;;3.90;2.15;;;;;;;16.48;69.63;101191.44;6023796;28;20074;-65
2022/08/13 01:36:17;;;;;;;3.72;1.92;;;;;;;16.43;69.82;101183.94;6024829;28;20473;-65
2022/08/13 01:39:13;;;;;;;4.35;2.20;;;;;;;17.21;67.49;101200.00;6025052;28;20036;-67
2022/08/13 01:42:13;;;;;;;4.88;2.17;;;;;;;17.19;65.75;101169.88;6024427;28;20026;-66
2022/08/13 01:45:11;;;;;;;7.78;2.40;;;;;;;17.77;63.63;101204.97;6024055;28;20026;-65
2022/08/13 01:51:22;;;;;;;3.72;1.75;;;;;;;17.90;60.84;101195.50;6019196;28;20038;-66
2022/08/13 01:54:18;;;;;;;4.28;1.83;;;;;;;17.95;60.74;101188.56;6024618;28;20455;-67
2022/08/13 01:57:13;;;;;;;2.20;1.63;;;;;;;17.99;61.37;101187.16;6023028;28;20055;-66
2022/08/13 02:00:13;;;;;;;7.68;1.98;;;;;;;18.15;61.68;101199.63;6024019;28;20277;-66
2022/08/13 02:03:11;;;;;;;3.28;1.75;;;;;;;18.17;61.39;101194.91;6024451;28;20125;-65
2022/08/13 02:06:06;;;;;;;2.75;1.60;;;;;;;18.33;60.87;101186.66;6024455;28;20034;-66
2022/08/13 02:09:03;;;;;;;4.70;1.73;;;;;;;18.24;60.60;101177.03;6024385;28;20038;-65
2022/08/13 02:11:59;;;;;;;4.57;1.88;;;;;;;18.33;61.03;101187.50;6023718;28;20022;-65
2022/08/13 02:14:54;;;;;;;5.13;1.80;;;;;;;18.35;60.00;101192.69;6024093;28;20034;-66
2022/08/13 02:17:49;;;;;;;2.40;1.60;;;;;;;18.13;61.61;101197.09;6022638;28;20453;-66
2022/08/13 02:20:47;;;;;;;2.65;1.55;;;;;;;18.27;61.20;101177.50;6022191;28;20054;-65
2022/08/13 02:23:52;;;;;;;2.72;1.80;;;;;;;18.08;62.44;101183.41;6023850;28;20030;-65
2022/08/13 02:26:48;;;;;;;4.35;1.70;;;;;;;18.24;61.46;101171.66;6023971;28;20363;-67
2022/08/13 02:29:44;;;;;;;3.55;1.80;;;;;;;18.22;61.19;101168.31;6023788;28;20042;-65
2022/08/13 02:32:40;;;;;;;4.40;2.00;;;;;;;18.34;60.95;101175.72;6023149;28;20454;-65
2022/08/13 02:35:37;;;;;;;3.63;1.90;;;;;;;18.28;60.54;101187.22;6023979;28;20053;-66
2022/08/13 02:38:32;;;;;;;3.28;1.90;;;;;;;18.00;62.15;101164.69;6024029;28;20532;-66
2022/08/13 02:41:43;;;;;;;4.97;1.97;;;;;;;18.10;61.30;101186.72;6022699;28;20030;-66
2022/08/13 02:44:39;;;;;;;5.47;2.45;;;;;;;17.89;62.48;101178.56;6023786;28;20268;-66
2022/08/13 02:47:34;;;;;;;3.00;2.03;;;;;;;17.92;61.31;101180.03;6023354;28;20105;-67
2022/08/13 02:50:30;;;;;;;4.87;2.20;;;;;;;17.62;61.85;101171.91;6023008;28;20081;-66
2022/08/13 02:53:25;;;;;;;2.70;1.63;;;;;;;17.31;62.84;101184.53;6022919;28;20026;-66
2022/08/13 02:56:22;;;;;;;3.10;1.80;;;;;;;17.31;63.12;101168.47;6023828;28;20483;-64
2022/08/13 02:59:17;;;;;;;3.25;2.03;;;;;;;17.53;63.12;101182.88;6023473;28;20352;-65
2022/08/13 03:02:13;;;;;;;4.37;2.10;;;;;;;17.46;62.73;101172.03;6022552;28;20065;-67
2022/08/13 03:05:09;;;;;;;3.90;2.17;;;;;;;17.21;63.78;101157.94;6023226;28;20022;-66
2022/08/13 03:08:05;;;;;;;5.25;2.33;;;;;;;16.89;64.24;101162.69;6022769;28;20321;-67
2022/08/13 03:11:00;;;;;;;3.85;2.15;;;;;;;16.45;65.90;101167.69;6022318;28;20042;-67
2022/08/13 03:13:59;;;;;;;3.08;2.08;;;;;;;16.14;67.23;101173.00;6022827;28;20367;-64
2022/08/13 03:16:54;;;;;;;4.65;2.10;;;;;;;15.73;67.93;101164.19;6022647;28;20034;-67
2022/08/13 03:19:51;;;;;;;6.23;2.27;;;;;;;15.56;69.02;101177.72;6022956;28;20462;-67
2022/08/13 03:22:48;;;;;;;7.57;2.50;;;;;;;15.65;68.93;101169.53;6022141;28;20038;-66
2022/08/13 03:25:45;;;;;;;4.35;2.30;;;;;;;15.48;70.86;101171.38;6022903;28;20034;-67
2022/08/13 03:28:40;;;;;;;4.50;2.30;;;;;;;15.37;71.60;101177.00;6022917;28;20116;-66
2022/08/13 03:31:37;;;;;;;4.63;2.00;;;;;;;15.60;72.06;101181.75;6021694;28;20497;-64
2022/08/13 03:34:32;;;;;;;5.43;2.58;;;;;;;15.60;70.58;101160.34;6022499;28;20049;-66
2022/08/13 03:37:28;;;;;;;3.77;2.30;;;;;;;15.35;71.32;101171.00;6022683;28;20027;-64
2022/08/13 03:41:00;;;;;;;3.90;2.00;;;;;;;15.20;72.53;101164.63;6022072;28;20401;-64
2022/08/13 03:43:43;;;;;;;5.55;2.28;;;;;;;15.29;72.40;101162.81;6022568;28;20030;-66
2022/08/13 03:46:38;;;;;;;3.42;2.10;;;;;;;15.47;72.92;101176.88;6022786;28;20061;-65
2022/08/13 03:49:36;;;;;;;4.47;2.13;;;;;;;15.86;72.79;101179.72;6022266;28;20450;-66
2022/08/13 03:52:33;;;;;;;3.13;2.08;;;;;;;16.39;71.78;101161.19;6021960;28;20322;-67
2022/08/13 03:55:30;;;;;;;2.97;2.00;;;;;;;16.85;69.31;101166.72;6022342;28;20085;-66
2022/08/13 03:58:28;;;;;;;6.28;2.35;;;;;;;16.68;66.85;101165.97;6022234;28;20113;-65
2022/08/13 04:01:23;;;;;;;4.18;2.10;;;;;;;16.54;67.18;101178.25;6022222;28;20418;-66
2022/08/13 04:04:20;;;;;;;3.78;1.92;;;;;;;16.10;69.22;101177.00;6021967;28;20124;-67
2022/08/13 04:07:17;;;;;;;4.50;1.92;;;;;;;15.74;69.80;101173.88;6022924;28;20066;-65
2022/08/13 04:10:12;;;;;;;3.67;2.20;;;;;;;15.25;71.78;101164.13;6026624;28;20030;-66
2022/08/13 04:13:15;;;;;;;5.60;2.60;;;;;;;15.02;73.20;101169.28;6026855;28;20121;-66
2022/08/13 04:16:12;;;;;;;5.47;2.58;;;;;;;14.96;74.49;101169.06;6027110;28;20038;-67
2022/08/13 04:19:08;;;;;;;5.38;2.35;;;;;;;14.73;74.22;101136.81;6026667;28;20027;-65
2022/08/13 04:22:04;;;;;;;5.63;3.17;;;;;;;14.75;74.35;101164.19;6026381;28;20081;-65
2022/08/13 04:25:00;;;;;;;5.70;2.67;;;;;;;14.83;74.97;101146.34;6026512;28;20319;-65
2022/08/13 04:27:55;;;;;;;8.93;2.38;;;;;;;15.33;73.55;101172.97;6026612;28;20081;-66
2022/08/13 04:30:50;;;;;;;5.73;2.53;;;;;;;15.31;73.28;101160.78;6026173;28;20038;-65
2022/08/13 04:33:46;;;;;;;7.77;2.50;;;;;;;15.25;74.01;101161.44;6026637;28;20135;-65
2022/08/13 04:36:41;;;;;;;4.60;2.50;;;;;;;15.86;70.78;101158.31;6026577;28;20038;-66
2022/08/13 04:39:37;;;;;;;5.07;2.50;;;;;;;16.02;71.04;101158.28;6026123;28;20026;-67
2022/08/13 04:42:53;;;;;;;4.60;2.47;;;;;;;15.71;71.21;101154.66;6025581;28;20057;-67
2022/08/13 04:45:48;;;;;;;5.93;2.20;;;;;;;15.51;72.44;101156.00;6026063;28;20038;-67
2022/08/13 04:48:44;;;;;;;3.90;2.17;;;;;;;15.45;72.75;101158.31;6026592;28;20851;-66
2022/08/13 04:51:39;;;;;;;4.35;2.45;;;;;;;15.48;72.86;101159.84;6025501;28;20288;-65
2022/08/13 04:54:34;;;;;;;6.43;2.53;;;;;;;15.78;72.41;101161.00;6025781;28;20517;-65
2022/08/13 04:57:30;;;;;;;6.40;2.67;;;;;;;16.21;71.00;101163.25;6026211;28;20638;-65
2022/08/13 05:00:32;;;;;;;5.57;2.80;;;;;;;16.55;70.46;101160.34;6025221;28;20041;-65
2022/08/13 05:03:29;;;;;;;3.60;2.38;;;;;;;16.95;69.35;101161.97;6026271;28;20640;-65
2022/08/13 05:06:24;;;;;;;5.53;2.30;;;;;;;17.44;67.93;101173.22;6025951;28;20092;-66
2022/08/13 05:09:20;;;;;;;7.83;2.30;;;;;;;17.72;67.21;101153.72;6026014;28;20413;-65
2022/08/13 05:12:15;;;;;;;3.80;2.40;;;;;;;18.14;65.67;101165.72;6025175;28;20113;-67
2022/08/13 05:15:13;;;;;;;6.07;2.40;;;;;;;18.40;63.71;101166.94;6025401;28;20043;-64
2022/08/13 05:18:08;;;;;;;4.25;2.15;;;;;;;18.84;61.57;101152.63;6025634;28;20133;-68
2022/08/13 05:21:06;;;;;;;3.47;2.20;;;;;;;18.96;60.65;101149.28;6023852;28;20038;-67
2022/08/13 05:24:01;;;;;;;7.28;2.08;;;;;;;19.37;59.01;101148.69;6025314;28;20038;-66
2022/08/13 05:26:58;;;;;;;3.53;2.10;;;;;;;19.51;59.00;101151.31;6025474;28;20104;-67
2022/08/13 05:29:53;;;;;;;6.20;2.22;;;;;;;19.82;57.90;101153.66;6025547;28;20061;-67
2022/08/13 05:32:50;;;;;;;4.87;2.23;;;;;;;20.29;57.74;101160.22;6024302;28;20034;-66
2022/08/13 05:35:48;;;;;;;6.95;2.13;;;;;;;21.62;51.59;101161.31;6024975;28;20034;-66
2022/08/13 05:38:43;;;;;;;6.88;2.13;;;;;;;21.79;50.42;101157.16;6025007;28;20131;-67
2022/08/13 05:41:41;;;;;;;4.13;2.37;;;;;;;22.05;49.67;101167.97;6024484;28;20035;-68
2022/08/13 05:44:37;;;;;;;4.88;2.80;;;;;;;21.67;48.30;101169.59;6024763;28;20073;-67
2022/08/13 05:47:32;;;;;;;6.63;2.63;;;;;;;21.60;49.25;101157.97;6025182;28;20026;-67
2022/08/13 05:50:28;;;;;;;4.55;3.20;;;;;;;21.26;50.00;101164.38;6023881;28;20027;-66
2022/08/13 05:53:24;;;;;;;5.40;2.80;;;;;;;20.84;51.48;101165.47;6024860;28;20030;-65
2022/08/13 05:56:21;;;;;;;3.70;2.55;;;;;;;22.37;47.11;101155.41;6022378;28;20081;-66
2022/08/13 06:05:46;;;;;;;6.47;2.47;;;;;;;22.35;47.92;101163.75;6024123;28;20031;-67
2022/08/13 06:08:43;;;;;;;3.92;2.45;;;;;;;22.01;48.52;101164.03;6024820;28;20418;-67
2022/08/13 06:11:42;;;;;;;6.10;2.92;;;;;;;22.30;48.81;101154.63;6023529;28;20113;-66
2022/08/13 06:14:38;;;;;;;4.38;2.40;;;;;;;22.24;49.27;101163.56;6024249;28;20081;-67
2022/08/13 06:17:34;;;;;;;3.92;2.45;;;;;;;22.77;47.79;101165.09;6023920;28;20060;-68
2022/08/13 06:20:31;;;;;;;4.03;2.50;;;;;;;23.01;47.88;101171.66;6022214;28;20045;-65
2022/08/13 06:23:29;;;;;;;8.95;3.25;;;;;;;22.34;48.72;101175.59;6023988;28;20041;-67
2022/08/13 06:26:26;;;;;;;3.95;2.50;;;;;;;22.62;48.50;101163.66;6023484;28;20032;-65
2022/08/13 06:29:22;;;;;;;5.97;2.70;;;;;;;22.74;48.49;101170.09;6024007;28;20367;-67
2022/08/13 06:32:20;;;;;;;4.07;2.28;;;;;;;22.17;49.93;101173.56;6022678;28;20042;-66
2022/08/13 06:35:15;;;;;;;3.70;2.50;;;;;;;22.97;46.80;101159.59;6024038;28;20121;-66
2022/08/13 06:38:10;;;;;;;5.30;2.90;;;;;;;22.56;47.81;101159.13;6023749;28;20037;-66
2022/08/13 06:41:08;;;;;;;6.05;2.53;;;;;;;23.30;45.83;101160.22;6016340;28;20490;-66
2022/08/13 06:44:03;;;;;;;4.80;2.60;;;;;;;22.82;46.62;101172.56;6023765;28;20027;-65
2022/08/13 06:47:03;;;;;;;5.75;2.80;;;;;;;22.47;47.59;101159.38;6023151;28;20493;-67
2022/08/13 06:49:59;;;;;;;6.75;2.83;;;;;;;22.66;48.57;101167.66;6022067;28;20037;-66
2022/08/13 06:52:56;;;;;;;5.65;2.63;;;;;;;23.50;45.90;101149.28;6022960;28;20381;-66
2022/08/13 06:55:52;;;;;;;6.65;2.60;;;;;;;23.66;45.37;101159.59;6023546;28;20405;-67
2022/08/13 06:58:51;;;;;;;5.05;2.03;;;;;;;24.33;43.63;101166.91;6023752;28;20038;-67
2022/08/13 07:01:47;;;;;;;5.10;2.03;;;;;;;23.89;45.54;101169.81;6022623;28;20084;-67
2022/08/13 07:04:48;;;;;;;10.13;2.72;;;;;;;24.38;44.30;101169.75;6021941;28;20026;-65
2022/08/13 07:07:45;;;;;;;4.57;2.40;;;;;;;24.30;43.74;101167.34;6022787;28;20030;-65
2022/08/13 07:10:51;;;;;;;4.75;2.30;;;;;;;24.62;43.04;101159.91;6022432;28;20085;-66
2022/08/13 07:13:49;;;;;;;6.20;2.40;;;;;;;24.87;43.02;101176.13;6022779;28;20046;-67
2022/08/13 07:16:45;;;;;;;3.70;2.20;;;;;;;24.79;42.84;101178.06;6023050;28;20402;-67
2022/08/13 07:19:40;;;;;;;5.90;2.35;;;;;;;24.99;42.89;101172.41;6022827;28;20040;-65
2022/08/13 07:22:35;;;;;;;4.88;2.33;;;;;;;25.27;41.76;101185.38;6021573;28;20050;-66
2022/08/13 07:25:31;;;;;;;5.10;2.57;;;;;;;25.05;42.63;101171.50;6022427;28;20042;-66
2022/08/13 07:28:28;;;;;;;4.50;2.20;;;;;;;26.26;40.10;101179.19;6021071;28;20119;-67
2022/08/13 07:31:29;;;;;;;4.55;2.42;;;;;;;26.54;38.48;101165.69;6021756;28;20026;-67
2022/08/13 07:34:31;;;;;;;4.63;2.00;;;;;;;26.82;38.19;101179.38;6022530;28;20030;-67
2022/08/13 07:37:26;;;;;;;3.97;2.22;;;;;;;26.80;38.67;101176.03;6022496;28;20030;-67
2022/08/13 07:40:22;;;;;;;6.95;2.38;;;;;;;26.77;39.05;101183.84;6021873;28;20485;-66
2022/08/13 07:43:21;;;;;;;6.07;2.50;;;;;;;26.44;39.03;101170.91;6022061;28;20036;-66
2022/08/13 07:46:18;;;;;;;3.88;2.22;;;;;;;26.41;38.81;101176.81;6023078;28;20041;-65
2022/08/13 07:49:13;;;;;;;6.78;2.70;;;;;;;26.04;39.97;101174.31;6022269;28;20038;-65
2022/08/13 07:52:09;;;;;;;3.47;2.45;;;;;;;26.33;39.87;101175.31;6020614;28;20089;-67
2022/08/13 07:55:07;;;;;;;6.13;2.40;;;;;;;26.45;39.24;101176.09;6021772;28;20038;-66
2022/08/13 07:58:03;;;;;;;6.05;2.28;;;;;;;26.92;37.70;101163.22;6021626;28;20052;-66
2022/08/13 08:00:59;;;;;;;4.53;2.30;;;;;;;26.41;38.75;101166.78;6021667;28;20034;-66
2022/08/13 08:03:57;;;;;;;3.55;2.47;;;;;;;26.98;38.14;101175.06;6021631;28;20485;-67
2022/08/13 08:06:53;;;;;;;4.63;2.50;;;;;;;27.20;37.82;101171.38;6022002;28;20030;-68
2022/08/13 08:09:50;;;;;;;4.53;2.38;;;;;;;27.01;39.08;101178.13;6022108;28;20045;-66
2022/08/13 08:12:46;;;;;;;7.63;3.00;;;;;;;27.11;38.97;101178.31;6020273;28;20045;-66
2022/08/13 08:15:45;;;;;;;5.20;2.60;;;;;;;27.32;38.08;101167.78;6022077;28;20027;-67
2022/08/13 08:18:40;;;;;;;4.70;2.80;;;;;;;27.87;37.80;101174.22;6017245;28;20030;-67
2022/08/13 08:21:36;;;;;;;6.20;2.67;;;;;;;27.68;38.18;101179.09;6021402;28;20035;-65
2022/08/13 08:24:32;;;;;;;6.80;2.60;;;;;;;27.58;38.06;101170.75;6020785;28;20031;-64
2022/08/13 08:27:27;;;;;;;3.97;2.40;;;;;;;27.23;39.15;101174.72;6020247;28;20026;-67
2022/08/13 08:30:23;;;;;;;8.10;2.77;;;;;;;27.30;39.00;101172.66;6021286;28;20069;-67
2022/08/13 08:33:26;;;;;;;5.57;2.50;;;;;;;27.14;39.36;101175.09;6021704;28;20065;-66
2022/08/13 08:36:22;;;;;;;5.15;2.78;;;;;;;27.23;39.51;101180.16;6022052;28;20034;-65
2022/08/13 08:42:38;;;;;;;5.95;3.20;;;;;;;27.88;37.86;101173.16;6021004;28;20038;-65
2022/08/13 08:45:34;;;;;;;6.97;2.33;;;;;;;28.39;37.21;101179.38;6020517;28;20034;-65
2022/08/13 08:48:32;;;;;;;5.13;3.00;;;;;;;28.11;37.61;101164.81;6021860;28;20084;-67
2022/08/13 08:51:28;;;;;;;3.50;2.63;;;;;;;27.67;38.76;101168.41;6021159;28;20549;-66
2022/08/13 08:54:24;;;;;;;6.20;2.60;;;;;;;28.34;37.45;101170.06;6022397;28;20038;-66
2022/08/13 08:57:20;;;;;;;4.70;2.90;;;;;;;28.53;37.17;101167.84;6026133;28;20038;-66
2022/08/13 09:00:18;;;;;;;6.03;2.53;;;;;;;28.52;36.99;101173.53;6025446;28;20085;-67
2022/08/13 09:03:17;;;;;;;4.38;2.72;;;;;;;28.35;37.27;101160.78;6026199;28;20081;-68
2022/08/13 09:06:12;;;;;;;7.80;2.75;;;;;;;28.97;36.14;101174.16;6025738;28;20026;-67
2022/08/13 09:09:07;;;;;;;4.73;2.80;;;;;;;28.48;37.28;101166.97;6025772;28;20488;-67
2022/08/13 09:12:04;;;;;;;5.70;3.00;;;;;;;28.90;36.29;101168.06;6025111;28;20792;-66
2022/08/13 09:14:59;;;;;;;5.50;2.78;;;;;;;29.01;36.78;101156.16;6024274;28;20026;-67
2022/08/13 09:17:56;;;;;;;5.75;2.55;;;;;;;29.06;36.73;101149.91;6017173;28;20440;-67
2022/08/13 09:20:51;;;;;;;6.30;3.13;;;;;;;28.84;36.97;101147.22;6022572;28;20041;-66
2022/08/13 09:23:47;;;;;;;6.50;2.90;;;;;;;28.75;37.30;101146.88;6025841;28;20386;-67
2022/08/13 09:26:45;;;;;;;10.47;3.27;;;;;;;28.54;37.70;101155.84;6025787;28;20069;-67
2022/08/13 09:29:40;;;;;;;6.65;2.90;;;;;;;28.05;38.78;101138.53;6025479;28;20023;-68
2022/08/13 09:32:36;;;;;;;6.82;3.33;;;;;;;28.64;38.48;101150.56;6024668;28;20995;-67
2022/08/13 09:35:32;;;;;;;4.15;3.38;;;;;;;28.69;38.58;101155.25;6025159;28;20437;-66
2022/08/13 09:38:27;;;;;;;5.32;3.25;;;;;;;28.55;38.44;101145.75;6024127;28;20033;-67
2022/08/13 09:41:38;;;;;;;5.57;3.90;;;;;;;29.05;37.74;101151.84;6024700;28;20030;-67
2022/08/13 09:44:37;;;;;;;7.82;3.72;;;;;;;28.37;39.11;101143.34;6023929;28;20046;-65
2022/08/13 09:47:33;;;;;;;5.78;3.55;;;;;;;28.32;39.35;101142.19;6025820;28;20066;-66
2022/08/13 09:50:28;;;;;;;9.13;3.20;;;;;;;28.49;38.53;101130.38;6024343;28;20038;-65
2022/08/13 09:53:25;;;;;;;5.70;4.03;;;;;;;28.87;38.18;101133.06;6025352;28;20052;-65
2022/08/13 09:56:22;;;;;;;4.65;3.70;;;;;;;28.75;37.91;101126.94;6024574;28;20466;-63
2022/08/13 09:59:20;;;;;;;4.35;3.17;;;;;;;29.18;38.31;101129.56;6024931;28;20092;-64
2022/08/13 10:02:15;;;;;;;5.50;3.40;;;;;;;28.89;38.11;101123.53;6024039;28;20034;-65
2022/08/13 10:05:11;;;;;;;6.15;3.97;;;;;;;29.49;37.05;101133.41;6023396;28;20038;-65
2022/08/13 10:08:13;;;;;;;5.00;3.77;;;;;;;29.46;36.83;101126.56;6024057;28;20042;-67
2022/08/13 10:11:08;;;;;;;6.55;3.85;;;;;;;29.90;35.97;101123.63;6023348;28;20026;-66
2022/08/13 10:14:04;;;;;;;6.70;3.73;;;;;;;29.96;35.85;101104.28;6024286;28;20042;-67
2022/08/13 10:17:00;;;;;;;5.00;3.80;;;;;;;29.95;36.06;101110.03;6023909;28;20061;-65
2022/08/13 10:19:55;;;;;;;6.32;3.75;;;;;;;29.57;37.18;101104.78;6023978;28;20038;-64
2022/08/13 10:22:53;;;;;;;13.23;4.07;;;;;;;29.67;37.41;101105.69;6023590;28;20038;-64
2022/08/13 10:25:52;;;;;;;8.75;3.72;;;;;;;29.89;36.33;101109.16;6023448;28;20031;-64
2022/08/13 10:28:48;;;;;;;7.43;4.05;;;;;;;30.29;35.06;101086.66;6023618;28;20034;-63
2022/08/13 10:31:43;;;;;;;6.32;3.70;;;;;;;30.74;35.59;101085.22;6023155;28;20034;-64
2022/08/13 10:34:43;;;;;;;8.23;4.73;;;;;;;30.30;35.51;101079.28;6023819;28;20186;-67
2022/08/13 10:37:43;;;;;;;6.50;4.35;;;;;;;30.38;36.36;101089.75;6023772;28;20249;-65
2022/08/13 10:40:39;;;;;;;8.25;4.55;;;;;;;30.39;35.05;101091.38;6022425;28;20032;-65
2022/08/13 10:43:37;;;;;;;6.37;4.87;;;;;;;30.39;35.17;101086.72;6023417;28;20114;-64
2022/08/13 10:46:33;;;;;;;7.85;4.70;;;;;;;30.12;35.41;101077.81;6023293;28;20427;-63
2022/08/13 10:49:29;;;;;;;6.47;4.63;;;;;;;30.00;35.50;101078.00;6023250;28;20141;-65
2022/08/13 10:52:26;;;;;;;8.05;4.88;;;;;;;29.97;35.83;101072.28;6022378;28;20469;-64
2022/08/13 10:55:22;;;;;;;8.45;4.45;;;;;;;30.05;35.60;101066.28;6022829;28;20117;-67
2022/08/13 10:58:17;;;;;;;5.80;4.10;;;;;;;29.99;35.30;101061.88;6023395;28;20170;-65
2022/08/13 11:01:12;;;;;;;7.30;4.40;;;;;;;30.08;35.82;101071.22;6022531;28;20034;-67
2022/08/13 11:04:08;;;;;;;6.70;4.53;;;;;;;30.28;35.17;101054.06;6023257;28;20160;-64
2022/08/13 11:07:06;;;;;;;5.82;4.22;;;;;;;29.43;36.84;101072.41;6022915;28;20763;-65
2022/08/13 11:10:02;;;;;;;5.45;3.63;;;;;;;29.45;37.12;101064.78;6023064;28;20421;-64
2022/08/13 11:12:57;;;;;;;6.82;4.28;;;;;;;28.75;38.35;101050.47;6022819;28;20066;-64
2022/08/13 11:15:52;;;;;;;5.37;3.83;;;;;;;28.80;38.60;101067.72;6022794;28;20041;-64
2022/08/13 11:18:48;;;;;;;7.00;4.27;;;;;;;28.56;39.09;101065.53;6022237;28;20426;-65
2022/08/13 11:21:43;;;;;;;7.53;4.43;;;;;;;28.38;39.20;101065.81;6022085;28;20066;-64
2022/08/13 11:24:39;;;;;;;7.03;4.68;;;;;;;28.20;39.61;101056.06;6023068;28;20030;-66
2022/08/13 11:27:35;;;;;;;9.37;4.90;;;;;;;28.58;39.29;101047.81;6022928;28;20027;-65
2022/08/13 11:30:31;;;;;;;8.40;4.40;;;;;;;29.41;36.90;101051.88;6022028;28;20072;-65
2022/08/13 11:33:26;;;;;;;6.73;4.70;;;;;;;30.24;36.03;101051.06;6022864;28;20037;-65
2022/08/13 11:36:21;;;;;;;8.25;4.60;;;;;;;30.37;34.95;101039.63;6022233;28;20288;-64
2022/08/13 11:39:17;;;;;;;6.23;4.37;;;;;;;30.86;34.70;101040.03;6022617;28;20043;-68
2022/08/13 11:42:12;;;;;;;7.00;4.20;;;;;;;31.39;33.32;101018.69;6021701;28;20038;-65
2022/08/13 11:45:08;;;;;;;8.40;4.07;;;;;;;31.47;33.07;101018.97;6022119;28;20018;-65
2022/08/13 11:48:07;;;;;;;7.38;4.22;;;;;;;31.21;33.08;101022.78;6022510;28;20030;-66
2022/08/13 11:51:02;;;;;;;6.65;4.30;;;;;;;30.86;33.47;101020.84;6021477;28;20373;-66
2022/08/13 11:53:57;;;;;;;8.00;4.50;;;;;;;30.89;34.00;101027.69;6022664;28;20061;-65
2022/08/13 11:56:53;;;;;;;8.00;4.40;;;;;;;30.02;35.10;101026.59;6022313;28;20772;-66
2022/08/13 11:59:48;;;;;;;7.63;4.57;;;;;;;30.03;35.64;101017.28;6021982;28;20035;-65
2022/08/13 12:02:44;;;;;;;8.63;4.47;;;;;;;29.96;35.50;101016.72;6021567;28;20058;-66
2022/08/13 12:05:39;;;;;;;7.90;4.20;;;;;;;30.01;35.01;101014.00;6021991;28;20062;-66
2022/08/13 12:08:34;;;;;;;6.22;4.38;;;;;;;29.83;35.84;101016.38;6022424;28;20281;-65
2022/08/13 12:11:30;;;;;;;6.70;4.40;;;;;;;30.00;36.06;101014.28;6021790;28;20030;-66
2022/08/13 12:14:26;;;;;;;6.22;4.32;;;;;;;29.98;36.00;101003.59;6022267;28;20034;-66
2022/08/13 12:17:21;;;;;;;6.40;4.67;;;;;;;30.66;35.59;101009.84;6022269;28;20061;-66
2022/08/13 12:20:19;;;;;;;6.13;4.37;;;;;;;29.80;36.80;100995.03;6021448;28;20508;-65
2022/08/13 12:23:15;;;;;;;5.88;4.25;;;;;;;29.64;37.45;101001.47;6022234;28;20038;-65
2022/08/13 12:26:10;;;;;;;8.40;4.85;;;;;;;29.92;36.49;100992.91;6022113;28;20073;-67
2022/08/13 12:29:05;;;;;;;9.50;4.97;;;;;;;29.85;36.87;100986.84;6023963;28;20394;-65
2022/08/13 12:32:00;;;;;;;7.77;4.30;;;;;;;29.71;35.78;101010.25;6026223;28;20074;-66
2022/08/13 12:34:56;;;;;;;5.87;4.03;;;;;;;29.49;36.72;101000.28;6026595;28;20044;-65
2022/08/13 12:37:52;;;;;;;6.87;4.27;;;;;;;29.37;36.90;100996.13;6027094;28;20022;-65
2022/08/13 12:40:48;;;;;;;8.18;4.93;;;;;;;29.05;37.35;101003.50;6026487;28;20034;-65
2022/08/13 12:43:44;;;;;;;5.32;4.22;;;;;;;28.90;37.54;101004.19;6026553;28;20027;-66
2022/08/13 12:46:39;;;;;;;6.40;4.70;;;;;;;29.09;37.09;100996.41;6026470;28;20537;-65
2022/08/13 12:49:35;;;;;;;8.43;4.17;;;;;;;29.91;35.57;100988.53;6026142;28;20036;-65
2022/08/13 12:52:30;;;;;;;5.13;4.10;;;;;;;30.78;34.10;100968.50;6025683;28;20745;-66
2022/08/13 12:55:25;;;;;;;8.20;4.30;;;;;;;31.41;33.41;100967.13;6025907;28;20741;-66
2022/08/13 12:58:23;;;;;;;5.83;4.57;;;;;;;31.22;33.57;100964.13;6026318;28;20084;-65
2022/08/13 13:01:19;;;;;;;6.13;4.22;;;;;;;31.61;32.30;100972.56;6025765;28;20041;-66
2022/08/13 13:04:15;;;;;;;7.37;4.27;;;;;;;31.59;32.62;100972.84;6025968;28;20030;-66
2022/08/13 13:07:10;;;;;;;7.47;4.38;;;;;;;30.38;34.13;100961.91;6025877;28;20317;-65
2022/08/13 13:10:06;;;;;;;8.47;4.80;;;;;;;29.88;36.09;100964.44;6024711;28;20037;-66
2022/08/13 13:13:01;;;;;;;6.40;4.38;;;;;;;29.73;37.24;100969.81;6025463;28;20022;-66
2022/08/13 13:15:57;;;;;;;6.63;4.43;;;;;;;29.40;37.64;100963.63;6025625;28;20049;-66
2022/08/13 13:18:52;;;;;;;10.25;4.65;;;;;;;29.12;38.02;100968.56;6025681;28;20033;-66
2022/08/13 13:21:47;;;;;;;8.25;4.47;;;;;;;28.69;38.38;100975.03;6024899;28;20375;-65
2022/08/13 13:24:43;;;;;;;6.40;4.82;;;;;;;28.96;38.34;100967.63;6025355;28;20065;-66
2022/08/13 13:27:38;;;;;;;6.33;4.87;;;;;;;29.59;37.11;100953.06;6025472;28;20053;-66
2022/08/13 13:30:35;;;;;;;7.07;4.67;;;;;;;29.63;36.61;100953.34;6024575;28;20054;-65
2022/08/13 13:33:31;;;;;;;7.78;4.10;;;;;;;30.11;35.22;100952.22;6024610;28;20478;-66
2022/08/13 13:36:26;;;;;;;7.22;4.75;;;;;;;30.45;35.02;100969.84;6025036;28;20061;-65
2022/08/13 13:39:23;;;;;;;6.95;4.35;;;;;;;30.41;34.45;100955.84;6024751;28;20038;-65
2022/08/13 13:42:18;;;;;;;7.57;4.43;;;;;;;30.39;34.48;100960.78;6023553;28;20034;-65
2022/08/13 13:45:13;;;;;;;8.10;4.40;;;;;;;30.47;34.63;100954.78;6025045;28;20073;-64
2022/08/13 13:48:17;;;;;;;6.40;4.40;;;;;;;31.01;34.32;100944.13;6024367;28;20107;-65
2022/08/13 13:51:13;;;;;;;7.30;4.78;;;;;;;31.21;33.95;100959.75;6022784;28;20026;-65
2022/08/13 13:54:09;;;;;;;7.10;4.47;;;;;;;31.16;33.68;100966.06;6024866;28;20527;-65